Time;durP1;ratioP1;P1;durP2;ratioP2;P2;SDS_P1;SDS_P2;PMS_P1;PMS_P2;Temp;Humidity;BMP_temperature;BMP_pressure;BME280_temperature;BME280_humidity;BME280_pressure;Samples;Min_cycle;Max_cycle;Signal;HPM_P1;HPM_P2
2022/09/24 00:01:24;;;;;;;13.00;8.10;;;;;;;15.80;60.12;97181.13;5039473;28;20196;-73
2022/09/24 00:03:55;;;;;;;14.20;8.50;;;;;;;15.75;60.19;97183.50;5011640;28;20548;-72
2022/09/24 00:06:21;;;;;;;12.40;8.87;;;;;;;15.77;60.26;97186.78;5022605;28;20523;-71
2022/09/24 00:08:48;;;;;;;11.47;8.13;;;;;;;15.78;60.08;97179.69;5020669;28;20435;-72
2022/09/24 00:11:15;;;;;;;13.70;9.63;;;;;;;15.78;60.20;97164.63;5020294;28;20903;-72
2022/09/24 00:13:41;;;;;;;18.60;9.10;;;;;;;15.75;60.01;97175.56;5013414;28;20856;-71
2022/09/24 00:16:09;;;;;;;10.57;7.90;;;;;;;15.71;60.19;97174.31;5020191;28;20434;-70
2022/09/24 00:18:35;;;;;;;11.97;8.60;;;;;;;15.71;60.60;97174.31;5026384;28;20184;-71
2022/09/24 00:21:13;;;;;;;11.77;7.50;;;;;;;15.74;60.32;97170.47;5022346;28;20497;-71
2022/09/24 00:23:39;;;;;;;9.60;7.90;;;;;;;15.81;60.24;97166.91;5012352;28;20466;-71
2022/09/24 00:28:50;;;;;;;9.80;7.20;;;;;;;15.81;60.01;97168.75;5016927;28;20196;-71
2022/09/24 00:31:15;;;;;;;7.60;6.40;;;;;;;15.69;60.27;97163.13;5022306;28;20537;-71
2022/09/24 00:33:42;;;;;;;7.30;6.07;;;;;;;15.66;60.43;97168.75;5013309;28;20538;-71
2022/09/24 00:36:08;;;;;;;6.77;5.80;;;;;;;15.69;60.25;97165.75;5017211;28;20210;-71
2022/09/24 00:38:33;;;;;;;8.73;5.80;;;;;;;15.66;60.20;97163.47;5015938;28;20435;-72
2022/09/24 00:41:00;;;;;;;7.80;5.90;;;;;;;15.60;60.44;97161.59;5026437;28;20184;-72
2022/09/24 00:43:26;;;;;;;6.43;5.60;;;;;;;15.68;60.43;97165.94;5014790;28;20485;-72
2022/09/24 00:45:55;;;;;;;8.83;5.60;;;;;;;15.72;60.03;97157.47;5015540;28;20427;-72
2022/09/24 00:48:21;;;;;;;7.20;5.57;;;;;;;15.78;59.91;97159.34;5016776;28;20905;-72
2022/09/24 00:50:47;;;;;;;12.90;6.20;;;;;;;15.70;60.19;97146.25;5034101;28;20446;-72
2022/09/24 00:53:15;;;;;;;7.40;6.53;;;;;;;15.69;60.50;97143.81;5037479;28;20706;-71
2022/09/24 00:55:44;;;;;;;12.00;6.60;;;;;;;15.60;60.47;97145.75;5019682;28;20194;-72
2022/09/24 00:58:10;;;;;;;14.97;6.40;;;;;;;15.56;60.72;97133.91;5014708;28;20886;-72
2022/09/24 01:00:39;;;;;;;8.43;6.80;;;;;;;15.47;61.00;97128.75;5018454;28;20517;-72
2022/09/24 01:03:08;;;;;;;7.13;5.73;;;;;;;15.49;60.54;97137.31;5014273;28;20220;-74
2022/09/24 01:05:35;;;;;;;9.27;6.77;;;;;;;15.45;60.89;97127.25;5018080;28;20462;-73
2022/09/24 01:08:00;;;;;;;7.77;6.37;;;;;;;15.43;60.85;97127.47;5020228;28;20438;-73
2022/09/24 01:11:04;;;;;;;12.17;6.57;;;;;;;15.47;60.69;97133.19;5017417;28;20427;-71
2022/09/24 01:13:32;;;;;;;7.03;6.00;;;;;;;15.39;60.97;97128.03;5014750;28;20565;-70
2022/09/24 01:16:29;;;;;;;7.00;5.63;;;;;;;15.37;60.84;97130.84;5016936;28;20490;-72
2022/09/24 01:19:08;;;;;;;8.57;6.47;;;;;;;15.38;60.71;97126.38;5020439;28;20910;-72
2022/09/24 01:21:44;;;;;;;10.63;6.80;;;;;;;15.41;60.74;97112.81;5024472;28;20937;-72
2022/09/24 01:24:24;;;;;;;10.10;6.50;;;;;;;15.32;60.99;97115.53;5010859;28;20869;-72
2022/09/24 01:27:00;;;;;;;11.43;6.33;;;;;;;15.35;60.90;97117.00;5022205;28;20927;-72
2022/09/24 01:29:45;;;;;;;10.97;6.93;;;;;;;15.40;60.61;97109.34;5014331;28;20434;-71
2022/09/24 01:32:19;;;;;;;7.43;6.67;;;;;;;15.42;60.54;97106.53;5022878;28;20818;-72
2022/09/24 01:35:09;;;;;;;8.10;6.60;;;;;;;15.40;60.62;97104.06;5018619;28;20441;-72
2022/09/24 01:37:36;;;;;;;10.47;6.60;;;;;;;15.43;60.38;97095.78;5018235;28;20481;-71
2022/09/24 01:40:03;;;;;;;10.83;6.73;;;;;;;15.44;60.15;97093.94;5019990;28;20437;-72
2022/09/24 01:42:30;;;;;;;7.97;6.27;;;;;;;15.37;60.29;97091.25;5017577;28;20477;-72
2022/09/24 01:44:57;;;;;;;9.80;5.60;;;;;;;15.34;60.28;97081.84;5011565;28;20812;-73
2022/09/24 01:47:32;;;;;;;8.77;6.40;;;;;;;15.35;60.38;97090.63;5019114;28;20537;-71
2022/09/24 01:49:58;;;;;;;7.47;6.23;;;;;;;15.38;60.06;97089.41;5015821;28;20802;-72
2022/09/24 01:52:32;;;;;;;11.50;6.40;;;;;;;15.31;60.07;97095.41;5021564;28;20434;-71
2022/09/24 01:54:59;;;;;;;7.73;6.40;;;;;;;15.22;60.29;97082.53;5001416;28;20187;-72
2022/09/24 01:57:28;;;;;;;9.93;6.80;;;;;;;15.15;60.53;97074.53;5015732;28;20440;-71
2022/09/24 02:00:08;;;;;;;6.70;5.97;;;;;;;15.15;60.46;97074.53;5035792;28;20462;-73
2022/09/24 02:02:41;;;;;;;7.50;6.67;;;;;;;15.13;60.37;97065.97;5017339;28;20450;-72
2022/09/24 02:05:14;;;;;;;7.40;6.60;;;;;;;15.07;60.27;97077.25;5019327;28;20420;-72
2022/09/24 02:07:45;;;;;;;7.87;6.57;;;;;;;15.07;60.59;97083.38;5012516;28;20915;-72
2022/09/24 02:10:16;;;;;;;10.20;6.83;;;;;;;15.07;60.55;97070.16;5019232;28;20528;-72
2022/09/24 02:12:44;;;;;;;7.30;6.60;;;;;;;15.06;60.72;97071.16;5012900;28;20962;-72
2022/09/24 02:15:17;;;;;;;10.57;6.27;;;;;;;15.04;60.52;97063.44;5017706;28;20914;-72
2022/09/24 02:17:45;;;;;;;7.37;6.50;;;;;;;14.96;60.67;97065.38;5022331;28;20426;-71
2022/09/24 02:20:15;;;;;;;11.20;6.73;;;;;;;14.98;60.70;97071.28;5021687;28;20489;-72
2022/09/24 02:22:43;;;;;;;9.77;6.87;;;;;;;15.01;60.73;97073.53;5022947;28;20445;-71
2022/09/24 02:25:13;;;;;;;9.47;6.60;;;;;;;15.00;60.60;97077.16;5017782;28;20431;-71
2022/09/24 02:27:39;;;;;;;10.73;6.10;;;;;;;14.99;60.64;97070.28;5014077;28;20436;-72
2022/09/24 02:30:05;;;;;;;7.17;6.47;;;;;;;14.92;60.92;97075.47;5014636;28;20435;-72
2022/09/24 02:32:33;;;;;;;9.60;6.80;;;;;;;14.97;60.98;97074.91;5020766;28;20946;-71
2022/09/24 02:35:02;;;;;;;9.10;6.13;;;;;;;14.98;60.89;97069.44;5002083;28;20438;-71
2022/09/24 02:37:28;;;;;;;6.23;5.70;;;;;;;14.95;61.02;97063.72;5019823;28;20427;-71
2022/09/24 02:39:54;;;;;;;8.83;6.53;;;;;;;14.99;61.03;97054.44;5022858;28;20523;-73
2022/09/24 02:42:20;;;;;;;8.53;6.10;;;;;;;15.01;61.07;97044.50;5023459;28;20564;-73
2022/09/24 02:44:46;;;;;;;7.60;6.80;;;;;;;15.03;60.97;97050.41;5009425;28;20598;-73
2022/09/24 02:47:12;;;;;;;8.30;7.30;;;;;;;15.02;60.64;97054.91;5021948;28;20448;-71
2022/09/24 02:49:37;;;;;;;7.57;6.50;;;;;;;15.00;60.95;97062.19;5029568;28;20183;-72
2022/09/24 02:52:03;;;;;;;19.40;8.97;;;;;;;15.02;60.73;97070.72;5024123;28;20527;-72
2022/09/24 02:54:30;;;;;;;10.60;7.40;;;;;;;14.99;61.00;97071.09;5020434;28;20204;-71
2022/09/24 02:56:55;;;;;;;8.57;6.50;;;;;;;14.99;61.34;97075.56;5020344;28;20274;-72
2022/09/24 02:59:21;;;;;;;11.50;6.80;;;;;;;15.04;61.30;97075.81;5017949;28;20498;-73
2022/09/24 03:01:47;;;;;;;7.87;7.07;;;;;;;15.08;61.29;97063.91;5019319;28;20256;-71
2022/09/24 03:04:12;;;;;;;9.63;6.60;;;;;;;15.09;61.13;97065.53;5019698;28;20283;-72
2022/09/24 03:06:38;;;;;;;11.70;8.20;;;;;;;15.00;60.98;97058.69;5022369;28;20282;-72
2022/09/24 03:09:04;;;;;;;11.43;8.43;;;;;;;14.97;61.43;97056.44;5019778;28;20202;-72
2022/09/24 03:11:30;;;;;;;10.10;9.00;;;;;;;15.03;61.44;97048.63;5014027;28;20183;-71
2022/09/24 03:13:56;;;;;;;9.63;8.57;;;;;;;15.04;61.11;97042.34;5015934;28;20451;-72
2022/09/24 03:16:21;;;;;;;12.30;8.80;;;;;;;15.08;61.08;97042.78;5016281;28;21012;-72
2022/09/24 03:18:47;;;;;;;9.70;8.70;;;;;;;14.97;61.21;97040.63;5016553;28;20189;-71
2022/09/24 03:21:14;;;;;;;9.57;8.57;;;;;;;14.96;60.94;97049.53;5020426;28;20973;-73
2022/09/24 03:23:40;;;;;;;10.17;9.07;;;;;;;14.94;61.03;97046.25;5010900;28;20223;-72
2022/09/24 03:26:06;;;;;;;10.93;8.20;;;;;;;14.95;61.18;97043.41;5017232;28;20461;-73
2022/09/24 03:28:32;;;;;;;9.33;8.43;;;;;;;14.99;61.05;97042.06;5020204;28;20192;-70
2022/09/24 03:31:00;;;;;;;14.40;8.40;;;;;;;15.05;61.03;97037.88;5016196;28;20453;-73
2022/09/24 03:33:25;;;;;;;9.70;8.40;;;;;;;15.09;61.04;97039.13;5004947;28;20290;-71
2022/09/24 03:35:57;;;;;;;10.97;8.40;;;;;;;15.07;61.19;97035.88;5005556;28;20616;-72
2022/09/24 03:38:23;;;;;;;12.30;8.27;;;;;;;14.99;60.94;97041.25;5025332;28;20180;-72
2022/09/24 03:40:48;;;;;;;14.40;7.47;;;;;;;15.03;61.40;97029.31;5024561;28;20449;-72
2022/09/24 03:43:14;;;;;;;8.67;7.27;;;;;;;15.13;61.30;97034.31;5026942;28;20208;-72
2022/09/24 03:45:39;;;;;;;7.93;6.80;;;;;;;15.17;61.28;97030.31;5030982;28;20185;-72
2022/09/24 03:48:05;;;;;;;9.10;7.37;;;;;;;15.20;61.49;97025.47;5029558;28;20214;-72
2022/09/24 03:50:31;;;;;;;9.83;7.00;;;;;;;15.23;61.34;97018.97;5029684;28;20187;-72
2022/09/24 03:52:56;;;;;;;11.03;7.57;;;;;;;15.25;61.32;97013.53;5029552;28;20437;-72
2022/09/24 03:55:22;;;;;;;10.03;7.73;;;;;;;15.25;61.32;97016.19;5028975;28;20335;-72
2022/09/24 03:57:47;;;;;;;8.73;7.13;;;;;;;15.26;61.24;97023.06;5028795;28;20716;-72
2022/09/24 04:00:13;;;;;;;9.23;8.33;;;;;;;15.26;61.39;97028.34;5029037;28;20258;-73
2022/09/24 04:02:39;;;;;;;9.07;8.17;;;;;;;15.24;61.49;97031.19;5029461;28;20212;-71
2022/09/24 04:05:06;;;;;;;8.73;7.53;;;;;;;15.29;61.38;97026.16;5031929;28;20180;-73
2022/09/24 04:07:31;;;;;;;10.50;8.37;;;;;;;15.30;61.29;97027.81;5032426;28;20422;-72
2022/09/24 04:09:57;;;;;;;8.13;7.30;;;;;;;15.30;61.52;97033.09;5028733;28;20951;-71
2022/09/24 04:12:22;;;;;;;7.47;6.67;;;;;;;15.36;61.34;97028.88;5026487;28;20547;-71
2022/09/24 04:14:48;;;;;;;9.00;7.30;;;;;;;15.33;61.38;97019.50;5032800;28;20187;-72
2022/09/24 04:17:13;;;;;;;9.43;8.30;;;;;;;15.35;61.54;97011.41;5031859;28;20184;-71
2022/09/24 04:19:39;;;;;;;11.17;7.73;;;;;;;15.36;61.26;97016.47;5033528;28;20222;-71
2022/09/24 04:22:04;;;;;;;13.00;8.00;;;;;;;15.37;61.31;97019.97;5033198;28;20238;-71
2022/09/24 04:24:30;;;;;;;9.13;8.23;;;;;;;15.38;61.27;97018.94;5032824;28;20211;-72
2022/09/24 04:26:55;;;;;;;8.53;7.00;;;;;;;15.45;61.15;97013.72;5032082;28;20263;-71
2022/09/24 04:29:21;;;;;;;8.40;7.50;;;;;;;15.47;61.16;97020.47;5031886;28;20188;-73
2022/09/24 04:31:46;;;;;;;8.87;7.47;;;;;;;15.47;61.26;97009.91;5032021;28;20765;-71
2022/09/24 04:34:12;;;;;;;9.23;6.93;;;;;;;15.44;61.34;97010.28;5033305;28;20738;-71
2022/09/24 04:36:37;;;;;;;10.17;7.43;;;;;;;15.40;61.57;97014.28;5029366;28;20566;-71
2022/09/24 04:39:03;;;;;;;10.80;7.03;;;;;;;15.30;61.71;97004.06;5025640;28;20265;-71
2022/09/24 04:41:28;;;;;;;8.03;7.20;;;;;;;15.30;61.79;97008.50;5028537;28;20180;-71
2022/09/24 04:43:56;;;;;;;7.23;6.53;;;;;;;15.24;61.82;97003.97;5032006;28;20589;-72
2022/09/24 04:46:21;;;;;;;9.20;7.60;;;;;;;15.20;62.08;97009.63;5031146;28;20249;-71
2022/09/24 04:48:46;;;;;;;10.00;7.10;;;;;;;15.17;62.07;97004.72;5034951;28;20434;-70
2022/09/24 04:51:12;;;;;;;9.20;7.10;;;;;;;15.20;62.06;97003.50;5032008;28;20200;-71
2022/09/24 04:53:37;;;;;;;8.10;7.30;;;;;;;15.15;62.28;97006.72;5032098;28;20282;-70
2022/09/24 04:56:04;;;;;;;8.13;7.20;;;;;;;15.18;62.01;97000.25;5031660;28;20184;-70
2022/09/24 04:58:30;;;;;;;9.73;6.80;;;;;;;15.17;62.22;97002.06;5023492;28;20697;-70
2022/09/24 05:00:55;;;;;;;10.17;7.30;;;;;;;15.20;62.13;97003.50;5031377;28;20430;-71
2022/09/24 05:03:20;;;;;;;8.50;6.87;;;;;;;15.21;62.17;96999.88;5032113;28;20627;-72
2022/09/24 05:05:46;;;;;;;10.00;6.77;;;;;;;15.15;62.29;96998.00;5032126;28;20192;-73
2022/09/24 05:08:12;;;;;;;9.70;7.80;;;;;;;15.18;62.31;97003.72;5030628;28;20179;-72
2022/09/24 05:10:38;;;;;;;11.40;8.10;;;;;;;15.16;62.07;97005.72;5031680;28;20236;-72
2022/09/24 05:13:03;;;;;;;10.57;7.60;;;;;;;15.14;62.54;97002.44;5030536;28;20551;-72
2022/09/24 05:15:29;;;;;;;8.90;7.53;;;;;;;15.16;62.58;97005.72;5030893;28;20254;-72
2022/09/24 05:17:54;;;;;;;8.80;7.53;;;;;;;15.18;62.58;97008.19;5033037;28;20182;-71
2022/09/24 05:20:19;;;;;;;8.27;7.43;;;;;;;15.18;62.70;97011.63;5033048;28;20183;-71
2022/09/24 05:22:46;;;;;;;8.40;7.47;;;;;;;15.19;62.66;97013.25;5037679;28;20646;-72
2022/09/24 05:25:13;;;;;;;10.57;7.03;;;;;;;15.13;62.87;97014.00;5031600;28;20226;-74
2022/09/24 05:27:45;;;;;;;11.80;6.70;;;;;;;15.12;63.04;97017.63;5030986;28;20426;-73
2022/09/24 05:30:11;;;;;;;8.43;7.50;;;;;;;15.10;63.22;97014.38;5030666;28;20427;-73
2022/09/24 05:32:37;;;;;;;9.03;8.03;;;;;;;15.11;63.22;97016.03;5031672;28;20870;-73
2022/09/24 05:35:03;;;;;;;17.53;7.70;;;;;;;15.11;63.24;97009.91;5018332;28;20538;-73
2022/09/24 05:37:29;;;;;;;8.07;7.27;;;;;;;15.14;63.15;97015.63;5024100;28;20188;-72
2022/09/24 05:39:54;;;;;;;37.50;28.33;;;;;;;15.14;63.29;97020.91;5023638;28;20190;-71
2022/09/24 05:42:20;;;;;;;35.47;28.50;;;;;;;15.18;63.01;97021.38;5028766;28;20288;-71
2022/09/24 05:44:45;;;;;;;45.27;37.37;;;;;;;15.22;63.09;97024.47;5026697;28;20204;-72
2022/09/24 05:47:12;;;;;;;37.10;30.03;;;;;;;15.24;63.05;97035.66;5021842;28;20540;-74
2022/09/24 05:49:38;;;;;;;20.23;16.93;;;;;;;15.27;63.12;97035.25;5021971;28;20180;-73
2022/09/24 05:52:03;;;;;;;22.67;18.33;;;;;;;15.30;63.14;97035.72;5032207;28;20804;-73
2022/09/24 05:54:29;;;;;;;18.67;13.97;;;;;;;15.29;63.02;97034.09;5021747;28;20430;-71
2022/09/24 05:56:54;;;;;;;14.13;11.47;;;;;;;15.33;63.04;97034.53;5016509;28;20173;-72
2022/09/24 05:59:20;;;;;;;10.40;9.30;;;;;;;15.34;63.02;97031.69;5023457;28;20183;-72
2022/09/24 06:01:45;;;;;;;12.20;8.50;;;;;;;15.37;63.06;97030.53;5020499;28;20694;-71
2022/09/24 06:04:11;;;;;;;9.90;8.90;;;;;;;15.42;62.75;97033.41;5017877;28;20240;-72
2022/09/24 06:06:37;;;;;;;10.37;8.60;;;;;;;15.46;62.65;97028.56;5019583;28;20662;-72
2022/09/24 06:09:02;;;;;;;11.93;8.87;;;;;;;15.46;62.72;97037.31;5015528;28;20434;-72
2022/09/24 06:11:33;;;;;;;8.90;8.00;;;;;;;15.46;62.91;97039.13;5021825;28;20175;-71
2022/09/24 06:14:03;;;;;;;10.80;7.53;;;;;;;15.52;62.98;97039.19;5016778;28;20728;-71
2022/09/24 06:16:28;;;;;;;8.40;7.50;;;;;;;15.54;63.03;97040.81;5019846;28;21103;-71
2022/09/24 06:18:54;;;;;;;10.17;8.17;;;;;;;15.51;63.32;97037.56;5020065;28;20431;-71
2022/09/24 06:21:20;;;;;;;9.13;8.03;;;;;;;15.54;63.31;97040.81;5030901;28;20259;-72
2022/09/24 06:23:45;;;;;;;11.30;7.77;;;;;;;15.51;63.38;97048.13;5020034;28;20200;-72
2022/09/24 06:26:12;;;;;;;10.90;7.93;;;;;;;15.58;63.45;97042.91;5013942;28;20212;-71
2022/09/24 06:28:38;;;;;;;8.90;8.00;;;;;;;15.63;63.16;97042.34;5020063;28;20176;-72
2022/09/24 06:31:04;;;;;;;10.20;7.80;;;;;;;15.66;63.22;97052.53;5020448;28;20426;-71
2022/09/24 06:33:29;;;;;;;9.63;8.33;;;;;;;15.73;63.07;97060.50;5024640;28;20465;-71
2022/09/24 06:35:58;;;;;;;12.77;9.27;;;;;;;15.76;62.86;97065.44;5018194;28;20443;-72
2022/09/24 06:38:24;;;;;;;11.50;9.47;;;;;;;15.80;62.66;97077.28;5022989;28;20187;-72
2022/09/24 06:40:49;;;;;;;13.73;8.97;;;;;;;15.84;62.63;97072.41;5018719;28;20894;-73
2022/09/24 06:43:16;;;;;;;9.80;8.80;;;;;;;15.87;62.75;97066.78;5015840;28;20294;-72
2022/09/24 06:45:43;;;;;;;11.60;8.63;;;;;;;15.87;62.99;97066.78;5019281;28;20175;-72
2022/09/24 06:48:10;;;;;;;13.27;8.70;;;;;;;15.89;63.04;97076.16;5016410;28;20444;-73
2022/09/24 06:50:38;;;;;;;11.80;9.70;;;;;;;15.93;62.88;97072.13;5017533;28;20447;-73
2022/09/24 06:53:05;;;;;;;11.00;9.57;;;;;;;15.97;62.59;97072.56;5012756;28;20991;-73
2022/09/24 06:55:30;;;;;;;9.30;8.40;;;;;;;16.01;62.78;97068.53;5016441;28;20428;-72
2022/09/24 06:58:11;;;;;;;12.03;9.37;;;;;;;16.05;62.75;97072.44;5015319;28;20506;-73
2022/09/24 07:00:37;;;;;;;11.43;9.20;;;;;;;16.06;62.40;97066.13;5016139;28;20682;-72
2022/09/24 07:03:03;;;;;;;10.60;9.50;;;;;;;16.07;62.45;97065.13;5016734;28;20459;-72
2022/09/24 07:05:29;;;;;;;11.20;9.10;;;;;;;16.14;62.62;97067.84;5013901;28;20426;-73
2022/09/24 07:07:54;;;;;;;10.30;8.67;;;;;;;16.18;62.72;97068.25;5009682;28;20420;-74
2022/09/24 07:10:23;;;;;;;11.67;9.70;;;;;;;16.16;62.53;97071.09;5012114;28;20561;-73
2022/09/24 07:12:48;;;;;;;16.20;10.30;;;;;;;16.21;62.65;97067.88;5009700;28;20201;-72
2022/09/24 07:15:14;;;;;;;10.47;9.47;;;;;;;16.29;62.46;97067.72;5011038;28;20485;-72
2022/09/24 07:17:39;;;;;;;17.80;9.77;;;;;;;16.34;62.55;97073.28;5015734;28;20196;-71
2022/09/24 07:20:05;;;;;;;13.40;9.13;;;;;;;16.40;62.49;97071.69;5011038;28;20267;-73
2022/09/24 07:22:31;;;;;;;14.70;9.93;;;;;;;16.43;62.60;97087.19;5020309;28;20187;-72
2022/09/24 07:24:56;;;;;;;14.73;8.87;;;;;;;16.43;62.97;97085.34;5015157;28;20457;-72
2022/09/24 07:27:22;;;;;;;12.73;9.00;;;;;;;16.48;63.20;97084.75;5018548;28;20263;-72
2022/09/24 07:29:48;;;;;;;14.90;9.33;;;;;;;16.50;62.90;97088.03;5024307;28;20212;-73
2022/09/24 07:32:16;;;;;;;11.57;9.60;;;;;;;16.50;62.91;97092.50;5019789;28;20184;-72
2022/09/24 07:34:41;;;;;;;11.03;9.20;;;;;;;16.53;62.86;97092.09;5015964;28;20935;-71
2022/09/24 07:37:07;;;;;;;11.30;9.77;;;;;;;16.54;62.78;97097.22;5016380;28;20411;-72
2022/09/24 07:39:32;;;;;;;14.97;10.47;;;;;;;16.58;62.73;97089.72;5026004;28;20189;-72
2022/09/24 07:42:00;;;;;;;17.00;10.57;;;;;;;16.64;62.56;97096.84;5032272;28;20662;-72
2022/09/24 07:44:25;;;;;;;11.77;10.57;;;;;;;16.68;62.79;97090.19;5033466;28;20683;-74
2022/09/24 07:46:51;;;;;;;12.97;10.73;;;;;;;16.73;62.71;97098.38;5027656;28;20429;-72
2022/09/24 07:49:17;;;;;;;11.53;10.33;;;;;;;16.78;62.55;97105.72;5026535;28;20191;-73
2022/09/24 07:51:43;;;;;;;12.80;10.33;;;;;;;16.80;62.30;97097.56;5019236;28;20242;-73
2022/09/24 07:54:09;;;;;;;15.97;11.30;;;;;;;16.83;62.42;97102.47;5024435;28;20450;-71
2022/09/24 07:56:35;;;;;;;12.97;10.40;;;;;;;16.87;62.49;97104.53;5017226;28;20986;-73
2022/09/24 07:59:00;;;;;;;11.00;9.83;;;;;;;16.92;62.61;97103.94;5019525;28;20427;-72
2022/09/24 08:01:26;;;;;;;13.13;9.13;;;;;;;16.97;62.45;97098.09;5029538;28;20187;-73
2022/09/24 08:03:52;;;;;;;13.27;9.10;;;;;;;16.99;62.58;97106.66;5027735;28;20231;-72
2022/09/24 08:06:19;;;;;;;10.83;9.67;;;;;;;17.04;62.87;97097.13;5022670;28;20454;-73
2022/09/24 08:08:44;;;;;;;13.57;9.43;;;;;;;17.12;62.78;97101.44;5024730;28;20434;-71
2022/09/24 08:11:12;;;;;;;10.47;9.30;;;;;;;17.16;62.81;97099.22;5019197;28;20997;-73
2022/09/24 08:13:38;;;;;;;15.90;9.10;;;;;;;17.20;62.71;97103.09;5031051;28;20275;-70
2022/09/24 08:16:03;;;;;;;11.27;9.10;;;;;;;17.24;63.08;97109.66;5021513;28;20526;-70
2022/09/24 08:18:30;;;;;;;10.40;9.33;;;;;;;17.31;62.52;97115.78;5020457;28;20187;-72
2022/09/24 08:21:06;;;;;;;12.20;9.63;;;;;;;17.37;62.33;97118.66;5032489;28;20183;-72
2022/09/24 08:23:32;;;;;;;13.13;8.87;;;;;;;17.41;62.49;97114.59;5020691;28;20528;-72
2022/09/24 08:25:57;;;;;;;15.53;9.57;;;;;;;17.49;62.30;97111.78;5025781;28;20430;-71
2022/09/24 08:28:23;;;;;;;11.27;8.60;;;;;;;17.56;61.99;97112.63;5020148;28;20936;-73
2022/09/24 08:30:48;;;;;;;10.97;8.50;;;;;;;17.64;61.77;97120.38;5021503;28;20274;-71
2022/09/24 08:33:14;;;;;;;19.33;8.80;;;;;;;17.70;61.31;97125.91;5017619;28;20208;-72
2022/09/24 08:35:40;;;;;;;8.60;7.67;;;;;;;17.75;61.84;97118.19;5026929;28;20233;-71
2022/09/24 08:38:05;;;;;;;9.30;8.20;;;;;;;17.79;61.34;97120.22;5019535;28;20423;-72
2022/09/24 08:41:12;;;;;;;12.37;7.03;;;;;;;17.85;61.22;97128.38;5023961;28;20306;-72
2022/09/24 08:44:01;;;;;;;9.20;6.17;;;;;;;17.91;60.89;97130.25;5034944;28;20733;-73
2022/09/24 08:49:28;;;;;;;7.37;5.53;;;;;;;17.99;59.94;97111.50;5022479;28;20478;-72
2022/09/24 08:51:58;;;;;;;4.77;4.23;;;;;;;18.03;59.40;97120.69;5025790;28;20426;-72
2022/09/24 08:54:23;;;;;;;4.93;3.90;;;;;;;18.00;60.08;97117.66;5027891;28;20440;-72
2022/09/24 08:56:51;;;;;;;4.60;4.20;;;;;;;18.09;59.94;97121.72;5025961;28;20448;-73
2022/09/24 08:59:23;;;;;;;4.90;3.93;;;;;;;18.14;59.91;97119.28;5023019;28;20267;-72
2022/09/24 09:02:00;;;;;;;4.30;4.00;;;;;;;18.10;59.72;97123.38;5026050;28;20425;-72
2022/09/24 09:04:34;;;;;;;4.33;3.93;;;;;;;18.14;59.88;97124.59;5018411;28;20465;-72
2022/09/24 09:07:05;;;;;;;4.20;3.60;;;;;;;18.09;59.69;97121.72;5023350;28;20925;-72
2022/09/24 09:09:49;;;;;;;4.73;3.93;;;;;;;18.00;60.73;97128.25;5024280;28;20411;-72
2022/09/24 09:12:30;;;;;;;4.33;3.87;;;;;;;18.09;60.30;97119.88;5029469;28;20434;-73
2022/09/24 09:15:02;;;;;;;4.80;3.53;;;;;;;18.13;60.53;97116.81;5024892;28;20835;-72
2022/09/24 09:17:41;;;;;;;6.90;4.20;;;;;;;18.18;61.14;97125.81;5026257;28;20466;-72
2022/09/24 09:20:10;;;;;;;4.10;3.73;;;;;;;18.25;61.54;97126.66;5025324;28;20423;-72
2022/09/24 09:22:44;;;;;;;7.07;4.50;;;;;;;18.16;61.71;97125.19;5017252;28;20580;-72
2022/09/24 09:25:15;;;;;;;4.50;4.07;;;;;;;18.21;61.94;97132.56;5022700;28;20459;-71
2022/09/24 09:27:41;;;;;;;5.03;4.33;;;;;;;18.14;61.42;97135.22;5014411;28;20915;-73
2022/09/24 09:30:12;;;;;;;5.80;4.33;;;;;;;18.09;62.12;97135.00;5024049;28;20430;-72
2022/09/24 09:33:08;;;;;;;5.43;4.50;;;;;;;18.09;62.60;97132.34;5019333;28;20173;-73
2022/09/24 09:36:08;;;;;;;4.60;4.20;;;;;;;18.12;62.72;97129.28;5021194;28;21016;-71
2022/09/24 09:38:43;;;;;;;4.33;3.93;;;;;;;18.15;62.86;97120.91;5013323;28;20513;-73
2022/09/24 09:41:20;;;;;;;5.80;4.77;;;;;;;18.18;62.92;97133.75;5026008;28;20429;-72
2022/09/24 09:43:46;;;;;;;9.70;5.00;;;;;;;18.20;63.34;97128.28;5032017;28;20767;-72
2022/09/24 09:46:22;;;;;;;4.97;4.53;;;;;;;18.22;63.47;97127.03;5023835;28;20438;-73
2022/09/24 09:48:53;;;;;;;7.57;4.23;;;;;;;18.24;63.58;97129.47;5024201;28;20188;-72
2022/09/24 09:51:20;;;;;;;6.27;4.37;;;;;;;18.22;64.00;97128.88;5021601;28;20415;-74
2022/09/24 09:53:57;;;;;;;5.40;4.70;;;;;;;18.21;63.93;97129.91;5016463;28;20551;-73
2022/09/24 09:56:25;;;;;;;5.10;3.83;;;;;;;18.22;63.65;97119.09;5012583;28;20415;-72
2022/09/24 09:58:54;;;;;;;5.87;4.70;;;;;;;18.23;64.12;97117.25;5014402;28;20930;-72
2022/09/24 10:01:30;;;;;;;4.90;4.40;;;;;;;18.26;64.61;97117.66;5012305;28;20415;-73
2022/09/24 10:03:57;;;;;;;6.40;4.43;;;;;;;18.27;64.49;97113.97;5019413;28;20466;-72
2022/09/24 10:06:25;;;;;;;5.70;4.40;;;;;;;18.27;64.39;97123.78;5019101;28;20428;-72
2022/09/24 10:08:50;;;;;;;5.63;5.03;;;;;;;18.24;65.01;97122.34;5022700;28;20572;-72
2022/09/24 10:11:16;;;;;;;7.87;5.13;;;;;;;18.30;64.75;97125.19;5025770;28;20503;-74
2022/09/24 10:13:42;;;;;;;5.27;4.40;;;;;;;18.25;64.77;97121.34;5023680;28;20203;-73
2022/09/24 10:16:09;;;;;;;5.70;4.10;;;;;;;18.27;64.56;97123.78;5021245;28;20268;-72
2022/09/24 10:18:47;;;;;;;5.03;4.63;;;;;;;18.19;64.11;97122.13;5026247;28;20201;-74
2022/09/24 10:21:23;;;;;;;6.83;5.00;;;;;;;18.30;64.34;97122.53;5033931;28;20886;-72
2022/09/24 10:23:49;;;;;;;6.30;4.50;;;;;;;18.27;64.71;97121.13;5022296;28;20453;-73
2022/09/24 10:26:15;;;;;;;5.17;4.57;;;;;;;18.37;64.46;97123.38;5020937;28;20432;-73
2022/09/24 10:31:30;;;;;;;4.77;4.37;;;;;;;18.46;64.44;97119.50;5020824;28;20211;-73
2022/09/24 10:33:58;;;;;;;7.97;4.43;;;;;;;18.42;64.95;97113.78;5020478;28;20493;-72
2022/09/24 10:36:26;;;;;;;6.00;4.53;;;;;;;18.50;64.65;97117.25;5021082;28;20442;-73
2022/09/24 10:39:23;;;;;;;4.63;4.23;;;;;;;18.52;64.55;97116.03;5026029;28;20422;-72
2022/09/24 10:41:51;;;;;;;4.60;4.03;;;;;;;18.56;63.89;97119.09;5004605;28;20447;-72
2022/09/24 10:44:17;;;;;;;7.27;4.23;;;;;;;18.54;63.87;97121.13;5018094;28;20490;-72
2022/09/24 10:47:06;;;;;;;4.50;4.10;;;;;;;18.60;63.97;97124.78;5018484;28;20439;-71
2022/09/24 10:49:56;;;;;;;6.03;4.43;;;;;;;18.61;64.49;97118.47;5012596;28;20418;-72
2022/09/24 10:52:45;;;;;;;5.77;4.60;;;;;;;18.65;64.50;97115.19;5020137;28;20414;-72
2022/09/24 10:55:16;;;;;;;5.33;3.90;;;;;;;18.67;64.55;97125.59;5017759;28;20514;-72
2022/09/24 10:58:03;;;;;;;5.77;3.73;;;;;;;18.59;64.26;97116.00;5018911;28;20429;-73
2022/09/24 11:00:41;;;;;;;3.93;3.53;;;;;;;18.56;64.45;97111.94;5013004;28;20789;-72
2022/09/24 11:03:41;;;;;;;3.97;3.67;;;;;;;18.58;64.57;97115.19;5011722;28;20493;-74
2022/09/24 11:06:44;;;;;;;3.37;3.07;;;;;;;18.46;64.16;97116.84;5015075;28;20965;-73
2022/09/24 11:09:36;;;;;;;4.00;3.13;;;;;;;18.41;64.54;97114.81;5012610;28;20451;-72
2022/09/24 11:12:15;;;;;;;3.80;3.50;;;;;;;18.32;64.48;97115.22;5013054;28;20428;-74
2022/09/24 11:14:58;;;;;;;3.60;3.30;;;;;;;18.31;64.97;97108.25;5017031;28;20475;-72
2022/09/24 11:17:32;;;;;;;5.60;3.30;;;;;;;18.35;64.92;97117.47;5017247;28;20449;-72
2022/09/24 11:20:03;;;;;;;4.20;3.60;;;;;;;18.42;65.00;97110.31;5021737;28;20513;-74
2022/09/24 11:23:12;;;;;;;4.27;3.40;;;;;;;18.50;65.17;97118.06;5017864;28;20428;-71
2022/09/24 11:25:46;;;;;;;4.60;4.20;;;;;;;18.50;65.20;97118.06;5016004;28;20442;-71
2022/09/24 11:28:39;;;;;;;8.10;4.03;;;;;;;18.60;65.54;97120.28;5020791;28;20437;-73
2022/09/24 11:31:13;;;;;;;6.57;5.20;;;;;;;18.60;65.25;97111.53;5018583;28;20461;-72
2022/09/24 11:34:18;;;;;;;5.57;4.60;;;;;;;18.69;65.57;97110.28;5017948;28;20518;-72
2022/09/24 11:37:01;;;;;;;5.63;3.90;;;;;;;18.74;65.15;97123.75;5015877;28;20529;-72
2022/09/24 11:39:58;;;;;;;3.93;3.53;;;;;;;18.76;65.31;97120.88;5020260;28;20434;-71
2022/09/24 11:42:28;;;;;;;5.50;3.90;;;;;;;18.65;65.58;97103.78;5013255;28;21890;-72
2022/09/24 11:45:23;;;;;;;4.87;4.47;;;;;;;18.66;65.88;97114.16;5027161;28;20459;-72
2022/09/24 11:48:01;;;;;;;7.60;4.70;;;;;;;18.71;65.73;97102.94;5022769;28;20963;-72
2022/09/24 11:50:29;;;;;;;5.60;4.90;;;;;;;18.78;65.55;97102.94;5022600;28;20430;-73